sensor_id;sensor_type;location;lat;lon;timestamp;P1;durP1;ratioP1;P2;durP2;ratioP2
74674;SDS011;63200;48.810;12.352;2023-04-20T00:01:16;8.23;;;6.25;;
74674;SDS011;63200;48.810;12.352;2023-04-20T00:03:41;8.10;;;6.55;;
74674;SDS011;63200;48.810;12.352;2023-04-20T00:06:06;8.88;;;6.13;;
74674;SDS011;63200;48.810;12.352;2023-04-20T00:08:33;7.50;;;6.18;;
74674;SDS011;63200;48.810;12.352;2023-04-20T00:10:58;7.85;;;6.50;;
74674;SDS011;63200;48.810;12.352;2023-04-20T00:13:24;9.30;;;6.93;;
74674;SDS011;63200;48.810;12.352;2023-04-20T00:15:50;7.68;;;6.40;;
74674;SDS011;63200;48.810;12.352;2023-04-20T00:18:15;7.85;;;6.55;;
74674;SDS011;63200;48.810;12.352;2023-04-20T00:20:40;8.35;;;6.72;;
74674;SDS011;63200;48.810;12.352;2023-04-20T00:23:06;9.50;;;6.80;;
74674;SDS011;63200;48.810;12.352;2023-04-20T00:25:31;10.20;;;6.90;;
74674;SDS011;63200;48.810;12.352;2023-04-20T00:27:57;9.65;;;7.57;;
74674;SDS011;63200;48.810;12.352;2023-04-20T00:30:22;10.43;;;6.75;;
74674;SDS011;63200;48.810;12.352;2023-04-20T00:32:47;12.48;;;7.47;;
74674;SDS011;63200;48.810;12.352;2023-04-20T00:35:13;10.40;;;7.10;;
74674;SDS011;63200;48.810;12.352;2023-04-20T00:37:38;12.15;;;7.22;;
74674;SDS011;63200;48.810;12.352;2023-04-20T00:40:04;9.70;;;7.25;;
74674;SDS011;63200;48.810;12.352;2023-04-20T00:42:31;10.38;;;7.20;;
74674;SDS011;63200;48.810;12.352;2023-04-20T00:44:56;11.60;;;7.70;;
74674;SDS011;63200;48.810;12.352;2023-04-20T00:47:21;11.45;;;7.35;;
74674;SDS011;63200;48.810;12.352;2023-04-20T00:49:46;9.43;;;7.65;;
74674;SDS011;63200;48.810;12.352;2023-04-20T00:52:12;10.70;;;7.30;;
74674;SDS011;63200;48.810;12.352;2023-04-20T00:54:38;10.15;;;7.38;;
74674;SDS011;63200;48.810;12.352;2023-04-20T00:57:03;7.53;;;6.47;;
74674;SDS011;63200;48.810;12.352;2023-04-20T00:59:29;8.35;;;6.95;;
74674;SDS011;63200;48.810;12.352;2023-04-20T01:01:54;9.63;;;6.82;;
74674;SDS011;63200;48.810;12.352;2023-04-20T01:04:21;8.85;;;6.65;;
74674;SDS011;63200;48.810;12.352;2023-04-20T01:06:46;8.20;;;6.78;;
74674;SDS011;63200;48.810;12.352;2023-04-20T01:09:11;10.07;;;7.30;;
74674;SDS011;63200;48.810;12.352;2023-04-20T01:11:37;10.35;;;6.78;;
74674;SDS011;63200;48.810;12.352;2023-04-20T01:14:03;8.02;;;6.28;;
74674;SDS011;63200;48.810;12.352;2023-04-20T01:16:29;8.82;;;7.28;;
74674;SDS011;63200;48.810;12.352;2023-04-20T01:18:54;10.13;;;6.13;;
74674;SDS011;63200;48.810;12.352;2023-04-20T01:21:20;9.98;;;6.90;;
74674;SDS011;63200;48.810;12.352;2023-04-20T01:23:46;9.05;;;6.88;;
74674;SDS011;63200;48.810;12.352;2023-04-20T01:26:15;12.13;;;7.30;;
74674;SDS011;63200;48.810;12.352;2023-04-20T01:28:42;10.80;;;8.45;;
74674;SDS011;63200;48.810;12.352;2023-04-20T01:31:08;15.18;;;8.98;;
74674;SDS011;63200;48.810;12.352;2023-04-20T01:33:35;14.93;;;9.93;;
74674;SDS011;63200;48.810;12.352;2023-04-20T01:36:00;18.65;;;12.13;;
74674;SDS011;63200;48.810;12.352;2023-04-20T01:38:26;23.40;;;12.50;;
74674;SDS011;63200;48.810;12.352;2023-04-20T01:40:52;23.30;;;13.50;;
74674;SDS011;63200;48.810;12.352;2023-04-20T01:43:19;25.83;;;14.63;;
74674;SDS011;63200;48.810;12.352;2023-04-20T01:45:45;30.92;;;15.07;;
74674;SDS011;63200;48.810;12.352;2023-04-20T01:48:10;36.92;;;16.17;;
74674;SDS011;63200;48.810;12.352;2023-04-20T01:50:36;55.60;;;17.27;;
74674;SDS011;63200;48.810;12.352;2023-04-20T01:53:01;121.75;;;19.33;;
74674;SDS011;63200;48.810;12.352;2023-04-20T01:55:26;68.50;;;18.65;;
74674;SDS011;63200;48.810;12.352;2023-04-20T01:57:52;99.80;;;21.20;;
74674;SDS011;63200;48.810;12.352;2023-04-20T02:00:17;46.05;;;17.73;;
74674;SDS011;63200;48.810;12.352;2023-04-20T02:02:43;69.28;;;18.65;;
74674;SDS011;63200;48.810;12.352;2023-04-20T02:05:08;66.93;;;17.17;;
74674;SDS011;63200;48.810;12.352;2023-04-20T02:07:33;74.13;;;18.25;;
74674;SDS011;63200;48.810;12.352;2023-04-20T02:09:59;47.38;;;16.52;;
74674;SDS011;63200;48.810;12.352;2023-04-20T02:12:24;80.10;;;16.90;;
74674;SDS011;63200;48.810;12.352;2023-04-20T02:14:49;70.45;;;15.90;;
74674;SDS011;63200;48.810;12.352;2023-04-20T02:17:15;95.25;;;16.35;;
74674;SDS011;63200;48.810;12.352;2023-04-20T02:19:42;50.70;;;16.75;;
74674;SDS011;63200;48.810;12.352;2023-04-20T02:22:07;64.20;;;16.65;;
74674;SDS011;63200;48.810;12.352;2023-04-20T02:24:32;88.03;;;18.25;;
74674;SDS011;63200;48.810;12.352;2023-04-20T02:26:58;88.10;;;18.05;;
74674;SDS011;63200;48.810;12.352;2023-04-20T02:29:24;100.15;;;15.82;;
74674;SDS011;63200;48.810;12.352;2023-04-20T02:31:49;118.03;;;20.17;;
74674;SDS011;63200;48.810;12.352;2023-04-20T02:34:15;168.13;;;19.40;;
74674;SDS011;63200;48.810;12.352;2023-04-20T02:36:40;43.97;;;15.48;;
74674;SDS011;63200;48.810;12.352;2023-04-20T02:39:05;87.65;;;18.05;;
74674;SDS011;63200;48.810;12.352;2023-04-20T02:41:31;172.02;;;23.77;;
74674;SDS011;63200;48.810;12.352;2023-04-20T02:43:56;94.95;;;21.08;;
74674;SDS011;63200;48.810;12.352;2023-04-20T02:46:22;116.70;;;22.85;;
74674;SDS011;63200;48.810;12.352;2023-04-20T02:48:47;134.60;;;23.38;;
74674;SDS011;63200;48.810;12.352;2023-04-20T02:51:12;91.47;;;20.48;;
74674;SDS011;63200;48.810;12.352;2023-04-20T02:53:38;112.88;;;24.40;;
74674;SDS011;63200;48.810;12.352;2023-04-20T02:56:03;104.70;;;19.55;;
74674;SDS011;63200;48.810;12.352;2023-04-20T02:58:28;83.35;;;19.33;;
74674;SDS011;63200;48.810;12.352;2023-04-20T03:01:00;77.72;;;19.30;;
74674;SDS011;63200;48.810;12.352;2023-04-20T03:03:27;70.40;;;18.35;;
74674;SDS011;63200;48.810;12.352;2023-04-20T03:05:53;83.60;;;20.27;;
74674;SDS011;63200;48.810;12.352;2023-04-20T03:08:18;57.22;;;20.42;;
74674;SDS011;63200;48.810;12.352;2023-04-20T03:10:44;52.75;;;19.40;;
74674;SDS011;63200;48.810;12.352;2023-04-20T03:13:09;69.45;;;21.00;;
74674;SDS011;63200;48.810;12.352;2023-04-20T03:15:34;58.33;;;19.85;;
74674;SDS011;63200;48.810;12.352;2023-04-20T03:18:00;84.07;;;21.60;;
74674;SDS011;63200;48.810;12.352;2023-04-20T03:20:25;79.95;;;22.27;;
74674;SDS011;63200;48.810;12.352;2023-04-20T03:22:51;58.83;;;20.23;;
74674;SDS011;63200;48.810;12.352;2023-04-20T03:25:16;86.55;;;26.58;;
74674;SDS011;63200;48.810;12.352;2023-04-20T03:27:42;89.00;;;23.00;;
74674;SDS011;63200;48.810;12.352;2023-04-20T03:30:09;71.53;;;21.02;;
74674;SDS011;63200;48.810;12.352;2023-04-20T03:32:35;72.70;;;22.83;;
74674;SDS011;63200;48.810;12.352;2023-04-20T03:35:02;68.65;;;19.05;;
74674;SDS011;63200;48.810;12.352;2023-04-20T03:37:27;48.88;;;16.27;;
74674;SDS011;63200;48.810;12.352;2023-04-20T03:39:53;54.85;;;16.08;;
74674;SDS011;63200;48.810;12.352;2023-04-20T03:42:18;53.83;;;17.40;;
74674;SDS011;63200;48.810;12.352;2023-04-20T03:44:44;56.45;;;16.58;;
74674;SDS011;63200;48.810;12.352;2023-04-20T03:47:10;45.67;;;16.95;;
74674;SDS011;63200;48.810;12.352;2023-04-20T03:49:35;46.85;;;17.38;;
74674;SDS011;63200;48.810;12.352;2023-04-20T03:52:01;46.28;;;16.35;;
74674;SDS011;63200;48.810;12.352;2023-04-20T03:54:26;44.92;;;15.95;;
74674;SDS011;63200;48.810;12.352;2023-04-20T03:56:51;43.80;;;16.23;;
74674;SDS011;63200;48.810;12.352;2023-04-20T03:59:16;55.80;;;16.45;;
74674;SDS011;63200;48.810;12.352;2023-04-20T04:01:42;46.33;;;18.08;;
74674;SDS011;63200;48.810;12.352;2023-04-20T04:04:08;54.40;;;19.60;;
74674;SDS011;63200;48.810;12.352;2023-04-20T04:06:33;54.33;;;18.63;;
74674;SDS011;63200;48.810;12.352;2023-04-20T04:08:58;48.58;;;18.10;;
74674;SDS011;63200;48.810;12.352;2023-04-20T04:11:24;53.83;;;18.73;;
74674;SDS011;63200;48.810;12.352;2023-04-20T04:13:50;47.42;;;18.75;;
74674;SDS011;63200;48.810;12.352;2023-04-20T04:16:15;43.58;;;18.05;;
74674;SDS011;63200;48.810;12.352;2023-04-20T04:18:42;54.70;;;19.67;;
74674;SDS011;63200;48.810;12.352;2023-04-20T04:21:07;47.88;;;19.40;;
74674;SDS011;63200;48.810;12.352;2023-04-20T04:23:34;43.50;;;19.38;;
74674;SDS011;63200;48.810;12.352;2023-04-20T04:25:59;42.67;;;19.27;;
74674;SDS011;63200;48.810;12.352;2023-04-20T04:28:25;42.67;;;18.08;;
74674;SDS011;63200;48.810;12.352;2023-04-20T04:30:51;34.72;;;17.10;;
74674;SDS011;63200;48.810;12.352;2023-04-20T04:33:18;34.15;;;18.15;;
74674;SDS011;63200;48.810;12.352;2023-04-20T04:35:44;31.30;;;17.42;;
74674;SDS011;63200;48.810;12.352;2023-04-20T04:38:10;35.85;;;17.00;;
74674;SDS011;63200;48.810;12.352;2023-04-20T04:40:37;29.70;;;16.13;;
74674;SDS011;63200;48.810;12.352;2023-04-20T04:43:03;32.67;;;16.08;;
74674;SDS011;63200;48.810;12.352;2023-04-20T04:45:29;32.17;;;16.80;;
74674;SDS011;63200;48.810;12.352;2023-04-20T04:47:54;34.88;;;17.55;;
74674;SDS011;63200;48.810;12.352;2023-04-20T04:50:21;30.35;;;17.40;;
74674;SDS011;63200;48.810;12.352;2023-04-20T04:52:47;42.05;;;18.10;;
74674;SDS011;63200;48.810;12.352;2023-04-20T04:55:12;32.63;;;19.13;;
74674;SDS011;63200;48.810;12.352;2023-04-20T04:57:38;36.38;;;19.60;;
74674;SDS011;63200;48.810;12.352;2023-04-20T05:00:03;39.30;;;18.58;;
74674;SDS011;63200;48.810;12.352;2023-04-20T05:02:33;40.03;;;20.25;;
74674;SDS011;63200;48.810;12.352;2023-04-20T05:04:58;48.95;;;22.67;;
74674;SDS011;63200;48.810;12.352;2023-04-20T05:07:24;52.28;;;24.27;;
74674;SDS011;63200;48.810;12.352;2023-04-20T05:09:50;53.67;;;24.65;;
74674;SDS011;63200;48.810;12.352;2023-04-20T05:12:15;60.28;;;25.58;;
74674;SDS011;63200;48.810;12.352;2023-04-20T05:14:40;44.88;;;21.75;;
74674;SDS011;63200;48.810;12.352;2023-04-20T05:17:06;43.65;;;21.33;;
74674;SDS011;63200;48.810;12.352;2023-04-20T05:19:31;50.22;;;21.55;;
74674;SDS011;63200;48.810;12.352;2023-04-20T05:21:56;47.92;;;22.58;;
74674;SDS011;63200;48.810;12.352;2023-04-20T05:24:22;53.10;;;22.92;;
74674;SDS011;63200;48.810;12.352;2023-04-20T05:26:47;47.78;;;22.35;;
74674;SDS011;63200;48.810;12.352;2023-04-20T05:29:14;50.13;;;24.42;;
74674;SDS011;63200;48.810;12.352;2023-04-20T05:31:40;52.75;;;23.38;;
74674;SDS011;63200;48.810;12.352;2023-04-20T05:34:05;52.67;;;23.33;;
74674;SDS011;63200;48.810;12.352;2023-04-20T05:36:31;38.40;;;20.02;;
74674;SDS011;63200;48.810;12.352;2023-04-20T05:38:57;44.67;;;21.15;;
74674;SDS011;63200;48.810;12.352;2023-04-20T05:41:23;38.60;;;19.33;;
74674;SDS011;63200;48.810;12.352;2023-04-20T05:43:51;37.00;;;19.23;;
74674;SDS011;63200;48.810;12.352;2023-04-20T05:46:17;40.97;;;19.33;;
74674;SDS011;63200;48.810;12.352;2023-04-20T05:48:42;39.35;;;21.27;;
74674;SDS011;63200;48.810;12.352;2023-04-20T05:51:08;37.35;;;19.65;;
74674;SDS011;63200;48.810;12.352;2023-04-20T05:53:33;33.22;;;18.23;;
74674;SDS011;63200;48.810;12.352;2023-04-20T05:55:58;37.08;;;18.75;;
74674;SDS011;63200;48.810;12.352;2023-04-20T05:58:23;34.25;;;19.00;;
74674;SDS011;63200;48.810;12.352;2023-04-20T06:00:49;30.83;;;16.40;;
74674;SDS011;63200;48.810;12.352;2023-04-20T06:03:15;37.58;;;19.80;;
74674;SDS011;63200;48.810;12.352;2023-04-20T06:05:40;29.55;;;17.33;;
74674;SDS011;63200;48.810;12.352;2023-04-20T06:08:05;22.20;;;13.93;;
74674;SDS011;63200;48.810;12.352;2023-04-20T06:10:31;23.85;;;14.95;;
74674;SDS011;63200;48.810;12.352;2023-04-20T06:12:58;26.23;;;14.38;;
74674;SDS011;63200;48.810;12.352;2023-04-20T06:15:23;21.80;;;12.88;;
74674;SDS011;63200;48.810;12.352;2023-04-20T06:17:48;22.02;;;13.93;;
74674;SDS011;63200;48.810;12.352;2023-04-20T06:20:14;25.38;;;16.60;;
74674;SDS011;63200;48.810;12.352;2023-04-20T06:22:42;19.17;;;12.82;;
74674;SDS011;63200;48.810;12.352;2023-04-20T06:25:09;20.27;;;12.50;;
74674;SDS011;63200;48.810;12.352;2023-04-20T06:27:35;20.55;;;13.40;;
74674;SDS011;63200;48.810;12.352;2023-04-20T06:30:00;15.32;;;10.60;;
74674;SDS011;63200;48.810;12.352;2023-04-20T06:32:25;16.63;;;11.82;;
74674;SDS011;63200;48.810;12.352;2023-04-20T06:34:51;14.75;;;10.93;;
74674;SDS011;63200;48.810;12.352;2023-04-20T06:37:17;20.98;;;11.70;;
74674;SDS011;63200;48.810;12.352;2023-04-20T06:39:42;16.77;;;12.38;;
74674;SDS011;63200;48.810;12.352;2023-04-20T06:42:08;17.45;;;11.93;;
74674;SDS011;63200;48.810;12.352;2023-04-20T06:44:33;15.13;;;11.68;;
74674;SDS011;63200;48.810;12.352;2023-04-20T06:46:58;16.65;;;12.07;;
74674;SDS011;63200;48.810;12.352;2023-04-20T06:49:24;16.80;;;11.77;;
74674;SDS011;63200;48.810;12.352;2023-04-20T06:51:49;16.47;;;11.40;;
74674;SDS011;63200;48.810;12.352;2023-04-20T06:54:15;17.35;;;11.15;;
74674;SDS011;63200;48.810;12.352;2023-04-20T06:56:40;18.40;;;11.70;;
74674;SDS011;63200;48.810;12.352;2023-04-20T06:59:05;15.20;;;10.63;;
74674;SDS011;63200;48.810;12.352;2023-04-20T07:01:31;15.45;;;10.93;;
74674;SDS011;63200;48.810;12.352;2023-04-20T07:03:56;14.03;;;9.97;;
74674;SDS011;63200;48.810;12.352;2023-04-20T07:06:21;16.27;;;8.73;;
74674;SDS011;63200;48.810;12.352;2023-04-20T07:08:46;15.77;;;9.55;;
74674;SDS011;63200;48.810;12.352;2023-04-20T07:11:12;13.55;;;9.18;;
74674;SDS011;63200;48.810;12.352;2023-04-20T07:13:37;12.48;;;8.77;;
74674;SDS011;63200;48.810;12.352;2023-04-20T07:16:02;13.15;;;8.68;;
74674;SDS011;63200;48.810;12.352;2023-04-20T07:18:28;16.48;;;9.57;;
74674;SDS011;63200;48.810;12.352;2023-04-20T07:20:53;20.73;;;8.30;;
74674;SDS011;63200;48.810;12.352;2023-04-20T07:23:19;11.10;;;8.18;;
74674;SDS011;63200;48.810;12.352;2023-04-20T07:25:45;22.63;;;10.52;;
74674;SDS011;63200;48.810;12.352;2023-04-20T07:28:10;20.33;;;10.10;;
74674;SDS011;63200;48.810;12.352;2023-04-20T07:30:36;14.55;;;8.40;;
74674;SDS011;63200;48.810;12.352;2023-04-20T07:33:01;13.88;;;9.43;;
74674;SDS011;63200;48.810;12.352;2023-04-20T07:35:27;14.73;;;9.93;;
74674;SDS011;63200;48.810;12.352;2023-04-20T07:37:52;16.42;;;8.98;;
74674;SDS011;63200;48.810;12.352;2023-04-20T07:40:18;17.65;;;9.13;;
74674;SDS011;63200;48.810;12.352;2023-04-20T07:42:43;17.23;;;10.43;;
74674;SDS011;63200;48.810;12.352;2023-04-20T07:45:09;18.05;;;10.35;;
74674;SDS011;63200;48.810;12.352;2023-04-20T07:47:36;14.68;;;8.43;;
74674;SDS011;63200;48.810;12.352;2023-04-20T07:50:02;13.63;;;8.07;;
74674;SDS011;63200;48.810;12.352;2023-04-20T07:52:28;15.50;;;9.23;;
74674;SDS011;63200;48.810;12.352;2023-04-20T07:54:54;15.90;;;8.70;;
74674;SDS011;63200;48.810;12.352;2023-04-20T07:57:23;12.10;;;8.45;;
74674;SDS011;63200;48.810;12.352;2023-04-20T07:59:52;13.60;;;8.55;;
74674;SDS011;63200;48.810;12.352;2023-04-20T08:02:17;12.68;;;7.55;;
74674;SDS011;63200;48.810;12.352;2023-04-20T08:04:43;13.50;;;7.63;;
74674;SDS011;63200;48.810;12.352;2023-04-20T08:07:08;12.90;;;8.27;;
74674;SDS011;63200;48.810;12.352;2023-04-20T08:09:34;12.40;;;8.60;;
74674;SDS011;63200;48.810;12.352;2023-04-20T08:12:00;13.82;;;7.45;;
74674;SDS011;63200;48.810;12.352;2023-04-20T08:14:25;12.13;;;8.52;;
74674;SDS011;63200;48.810;12.352;2023-04-20T08:16:51;10.80;;;6.78;;
74674;SDS011;63200;48.810;12.352;2023-04-20T08:19:16;10.50;;;7.78;;
74674;SDS011;63200;48.810;12.352;2023-04-20T08:21:42;11.80;;;7.50;;
74674;SDS011;63200;48.810;12.352;2023-04-20T08:24:07;12.25;;;8.43;;
74674;SDS011;63200;48.810;12.352;2023-04-20T08:26:33;11.73;;;8.20;;
74674;SDS011;63200;48.810;12.352;2023-04-20T08:28:59;11.48;;;7.45;;
74674;SDS011;63200;48.810;12.352;2023-04-20T08:31:25;10.15;;;7.95;;
74674;SDS011;63200;48.810;12.352;2023-04-20T08:33:50;14.55;;;7.03;;
74674;SDS011;63200;48.810;12.352;2023-04-20T08:36:16;12.80;;;6.78;;
74674;SDS011;63200;48.810;12.352;2023-04-20T08:38:42;8.25;;;6.22;;
74674;SDS011;63200;48.810;12.352;2023-04-20T08:41:07;11.63;;;7.28;;
74674;SDS011;63200;48.810;12.352;2023-04-20T08:43:32;10.80;;;7.32;;
74674;SDS011;63200;48.810;12.352;2023-04-20T08:45:58;12.07;;;6.80;;
74674;SDS011;63200;48.810;12.352;2023-04-20T08:48:26;13.68;;;8.13;;
74674;SDS011;63200;48.810;12.352;2023-04-20T08:50:59;9.52;;;6.97;;
74674;SDS011;63200;48.810;12.352;2023-04-20T08:53:25;9.60;;;8.00;;
74674;SDS011;63200;48.810;12.352;2023-04-20T08:55:51;9.55;;;6.43;;
74674;SDS011;63200;48.810;12.352;2023-04-20T08:58:16;7.97;;;6.38;;
74674;SDS011;63200;48.810;12.352;2023-04-20T09:00:46;9.80;;;6.38;;
74674;SDS011;63200;48.810;12.352;2023-04-20T09:03:14;10.73;;;7.45;;
74674;SDS011;63200;48.810;12.352;2023-04-20T09:05:39;11.63;;;7.07;;
74674;SDS011;63200;48.810;12.352;2023-04-20T09:08:05;11.70;;;6.95;;
74674;SDS011;63200;48.810;12.352;2023-04-20T09:10:40;11.50;;;6.28;;
74674;SDS011;63200;48.810;12.352;2023-04-20T09:13:07;11.52;;;6.68;;
74674;SDS011;63200;48.810;12.352;2023-04-20T09:15:34;69.00;;;27.92;;
74674;SDS011;63200;48.810;12.352;2023-04-20T09:18:09;19.63;;;9.25;;
74674;SDS011;63200;48.810;12.352;2023-04-20T09:20:36;7.82;;;6.40;;
74674;SDS011;63200;48.810;12.352;2023-04-20T09:23:17;8.88;;;6.68;;
74674;SDS011;63200;48.810;12.352;2023-04-20T09:25:46;9.00;;;6.18;;
74674;SDS011;63200;48.810;12.352;2023-04-20T09:28:16;11.43;;;6.05;;
74674;SDS011;63200;48.810;12.352;2023-04-20T09:30:43;18.08;;;8.05;;
74674;SDS011;63200;48.810;12.352;2023-04-20T09:33:13;11.35;;;6.85;;
74674;SDS011;63200;48.810;12.352;2023-04-20T09:35:39;9.10;;;6.13;;
74674;SDS011;63200;48.810;12.352;2023-04-20T09:38:06;8.25;;;5.88;;
74674;SDS011;63200;48.810;12.352;2023-04-20T09:40:33;11.00;;;6.82;;
74674;SDS011;63200;48.810;12.352;2023-04-20T09:43:03;6.70;;;5.22;;
74674;SDS011;63200;48.810;12.352;2023-04-20T09:45:34;7.97;;;5.78;;
74674;SDS011;63200;48.810;12.352;2023-04-20T09:48:06;11.60;;;7.25;;
74674;SDS011;63200;48.810;12.352;2023-04-20T09:50:33;11.45;;;5.65;;
74674;SDS011;63200;48.810;12.352;2023-04-20T09:53:01;9.68;;;7.15;;
74674;SDS011;63200;48.810;12.352;2023-04-20T09:55:29;6.22;;;5.32;;
74674;SDS011;63200;48.810;12.352;2023-04-20T09:57:55;6.70;;;5.70;;
74674;SDS011;63200;48.810;12.352;2023-04-20T10:00:20;7.72;;;5.88;;
74674;SDS011;63200;48.810;12.352;2023-04-20T10:02:46;7.05;;;5.60;;
74674;SDS011;63200;48.810;12.352;2023-04-20T10:05:12;10.07;;;5.55;;
74674;SDS011;63200;48.810;12.352;2023-04-20T10:07:38;7.57;;;4.70;;
74674;SDS011;63200;48.810;12.352;2023-04-20T10:10:08;6.95;;;4.53;;
74674;SDS011;63200;48.810;12.352;2023-04-20T10:12:48;7.72;;;5.10;;
74674;SDS011;63200;48.810;12.352;2023-04-20T10:15:14;7.60;;;5.53;;
74674;SDS011;63200;48.810;12.352;2023-04-20T10:17:40;8.07;;;4.93;;
74674;SDS011;63200;48.810;12.352;2023-04-20T10:22:45;6.47;;;4.22;;
74674;SDS011;63200;48.810;12.352;2023-04-20T10:25:14;9.93;;;6.18;;
74674;SDS011;63200;48.810;12.352;2023-04-20T10:27:54;7.25;;;5.55;;
74674;SDS011;63200;48.810;12.352;2023-04-20T10:30:21;7.10;;;5.25;;
74674;SDS011;63200;48.810;12.352;2023-04-20T10:32:47;7.15;;;4.70;;
74674;SDS011;63200;48.810;12.352;2023-04-20T10:35:12;5.28;;;4.63;;
74674;SDS011;63200;48.810;12.352;2023-04-20T10:37:47;9.00;;;6.45;;
74674;SDS011;63200;48.810;12.352;2023-04-20T10:40:14;5.95;;;4.63;;
74674;SDS011;63200;48.810;12.352;2023-04-20T10:42:42;6.22;;;4.90;;
74674;SDS011;63200;48.810;12.352;2023-04-20T10:45:08;7.88;;;5.57;;
74674;SDS011;63200;48.810;12.352;2023-04-20T10:47:35;9.55;;;6.10;;
74674;SDS011;63200;48.810;12.352;2023-04-20T10:50:35;4.72;;;4.30;;
74674;SDS011;63200;48.810;12.352;2023-04-20T10:52:53;5.15;;;4.65;;
74674;SDS011;63200;48.810;12.352;2023-04-20T10:55:23;8.57;;;5.20;;
74674;SDS011;63200;48.810;12.352;2023-04-20T10:57:50;5.60;;;4.72;;
74674;SDS011;63200;48.810;12.352;2023-04-20T11:02:52;5.88;;;5.28;;
74674;SDS011;63200;48.810;12.352;2023-04-20T11:05:18;5.10;;;4.70;;
74674;SDS011;63200;48.810;12.352;2023-04-20T11:07:51;5.47;;;5.07;;
74674;SDS011;63200;48.810;12.352;2023-04-20T11:10:20;5.57;;;4.60;;
74674;SDS011;63200;48.810;12.352;2023-04-20T11:12:53;5.15;;;4.57;;
74674;SDS011;63200;48.810;12.352;2023-04-20T11:15:29;8.57;;;4.68;;
74674;SDS011;63200;48.810;12.352;2023-04-20T11:17:55;5.28;;;4.85;;
74674;SDS011;63200;48.810;12.352;2023-04-20T11:20:30;5.05;;;4.55;;
74674;SDS011;63200;48.810;12.352;2023-04-20T11:22:55;6.75;;;5.13;;
74674;SDS011;63200;48.810;12.352;2023-04-20T11:25:23;5.32;;;4.93;;
74674;SDS011;63200;48.810;12.352;2023-04-20T11:27:48;6.85;;;4.53;;
74674;SDS011;63200;48.810;12.352;2023-04-20T11:30:14;4.97;;;4.45;;
74674;SDS011;63200;48.810;12.352;2023-04-20T11:32:39;5.88;;;5.18;;
74674;SDS011;63200;48.810;12.352;2023-04-20T11:35:05;5.53;;;5.00;;
74674;SDS011;63200;48.810;12.352;2023-04-20T11:37:37;4.32;;;4.03;;
74674;SDS011;63200;48.810;12.352;2023-04-20T11:40:11;4.85;;;4.45;;
74674;SDS011;63200;48.810;12.352;2023-04-20T11:42:37;7.20;;;4.65;;
74674;SDS011;63200;48.810;12.352;2023-04-20T11:45:04;6.20;;;5.25;;
74674;SDS011;63200;48.810;12.352;2023-04-20T11:47:30;6.13;;;4.60;;
74674;SDS011;63200;48.810;12.352;2023-04-20T11:49:56;5.72;;;4.57;;
74674;SDS011;63200;48.810;12.352;2023-04-20T11:52:21;6.00;;;4.60;;
74674;SDS011;63200;48.810;12.352;2023-04-20T11:54:46;4.80;;;4.40;;
74674;SDS011;63200;48.810;12.352;2023-04-20T11:57:12;5.40;;;4.10;;
74674;SDS011;63200;48.810;12.352;2023-04-20T11:59:37;4.38;;;3.95;;
74674;SDS011;63200;48.810;12.352;2023-04-20T12:02:02;4.45;;;4.15;;
74674;SDS011;63200;48.810;12.352;2023-04-20T12:04:29;4.95;;;4.55;;
74674;SDS011;63200;48.810;12.352;2023-04-20T12:06:55;5.03;;;4.63;;
74674;SDS011;63200;48.810;12.352;2023-04-20T12:09:23;4.80;;;4.40;;
74674;SDS011;63200;48.810;12.352;2023-04-20T12:11:48;5.45;;;4.93;;
74674;SDS011;63200;48.810;12.352;2023-04-20T12:14:13;6.53;;;5.20;;
74674;SDS011;63200;48.810;12.352;2023-04-20T12:16:39;4.32;;;4.03;;
74674;SDS011;63200;48.810;12.352;2023-04-20T12:19:04;4.35;;;3.70;;
74674;SDS011;63200;48.810;12.352;2023-04-20T12:21:29;4.28;;;3.97;;
74674;SDS011;63200;48.810;12.352;2023-04-20T12:23:56;7.82;;;4.20;;
74674;SDS011;63200;48.810;12.352;2023-04-20T12:26:22;4.05;;;3.83;;
74674;SDS011;63200;48.810;12.352;2023-04-20T12:28:47;4.65;;;4.28;;
74674;SDS011;63200;48.810;12.352;2023-04-20T12:31:13;4.55;;;4.15;;
74674;SDS011;63200;48.810;12.352;2023-04-20T12:33:38;5.05;;;4.65;;
74674;SDS011;63200;48.810;12.352;2023-04-20T12:36:03;5.45;;;4.90;;
74674;SDS011;63200;48.810;12.352;2023-04-20T12:38:29;5.13;;;4.75;;
74674;SDS011;63200;48.810;12.352;2023-04-20T12:40:55;6.03;;;5.28;;
74674;SDS011;63200;48.810;12.352;2023-04-20T12:43:20;5.20;;;4.70;;
74674;SDS011;63200;48.810;12.352;2023-04-20T12:45:45;5.80;;;4.82;;
74674;SDS011;63200;48.810;12.352;2023-04-20T12:48:12;5.65;;;4.80;;
74674;SDS011;63200;48.810;12.352;2023-04-20T12:50:37;5.18;;;4.68;;
74674;SDS011;63200;48.810;12.352;2023-04-20T12:53:02;5.63;;;5.10;;
74674;SDS011;63200;48.810;12.352;2023-04-20T12:55:28;5.10;;;3.97;;
74674;SDS011;63200;48.810;12.352;2023-04-20T12:57:53;5.00;;;4.55;;
74674;SDS011;63200;48.810;12.352;2023-04-20T13:00:18;5.18;;;4.72;;
74674;SDS011;63200;48.810;12.352;2023-04-20T13:02:44;5.20;;;4.80;;
74674;SDS011;63200;48.810;12.352;2023-04-20T13:05:09;5.43;;;4.93;;
74674;SDS011;63200;48.810;12.352;2023-04-20T13:07:35;5.68;;;5.05;;
74674;SDS011;63200;48.810;12.352;2023-04-20T13:10:00;5.75;;;5.25;;
74674;SDS011;63200;48.810;12.352;2023-04-20T13:12:26;5.93;;;5.32;;
74674;SDS011;63200;48.810;12.352;2023-04-20T13:14:51;7.30;;;5.25;;
74674;SDS011;63200;48.810;12.352;2023-04-20T13:17:17;6.15;;;4.72;;
74674;SDS011;63200;48.810;12.352;2023-04-20T13:19:44;7.30;;;5.35;;
74674;SDS011;63200;48.810;12.352;2023-04-20T13:22:10;6.13;;;5.68;;
74674;SDS011;63200;48.810;12.352;2023-04-20T13:24:36;7.43;;;5.75;;
74674;SDS011;63200;48.810;12.352;2023-04-20T13:27:01;5.15;;;4.65;;
74674;SDS011;63200;48.810;12.352;2023-04-20T13:29:27;6.90;;;5.47;;
74674;SDS011;63200;48.810;12.352;2023-04-20T13:31:52;32.03;;;9.40;;
74674;SDS011;63200;48.810;12.352;2023-04-20T13:34:18;5.00;;;4.60;;
74674;SDS011;63200;48.810;12.352;2023-04-20T13:36:43;5.65;;;4.80;;
74674;SDS011;63200;48.810;12.352;2023-04-20T13:39:09;5.50;;;4.97;;
74674;SDS011;63200;48.810;12.352;2023-04-20T13:41:35;5.85;;;4.97;;
74674;SDS011;63200;48.810;12.352;2023-04-20T13:44:01;5.95;;;5.35;;
74674;SDS011;63200;48.810;12.352;2023-04-20T13:46:27;4.70;;;4.30;;
74674;SDS011;63200;48.810;12.352;2023-04-20T13:48:53;5.60;;;5.10;;
74674;SDS011;63200;48.810;12.352;2023-04-20T13:51:19;5.88;;;5.38;;
74674;SDS011;63200;48.810;12.352;2023-04-20T13:53:44;5.53;;;5.00;;
74674;SDS011;63200;48.810;12.352;2023-04-20T13:56:11;5.80;;;4.55;;
74674;SDS011;63200;48.810;12.352;2023-04-20T13:58:37;5.47;;;4.97;;
74674;SDS011;63200;48.810;12.352;2023-04-20T14:01:06;6.68;;;4.65;;
74674;SDS011;63200;48.810;12.352;2023-04-20T14:03:35;6.35;;;5.57;;
74674;SDS011;63200;48.810;12.352;2023-04-20T14:06:00;6.28;;;4.78;;
74674;SDS011;63200;48.810;12.352;2023-04-20T14:08:26;5.03;;;4.35;;
74674;SDS011;63200;48.810;12.352;2023-04-20T14:10:51;5.50;;;4.95;;
74674;SDS011;63200;48.810;12.352;2023-04-20T14:13:17;5.88;;;5.28;;
74674;SDS011;63200;48.810;12.352;2023-04-20T14:15:42;5.00;;;4.50;;
74674;SDS011;63200;48.810;12.352;2023-04-20T14:18:07;5.07;;;4.57;;
74674;SDS011;63200;48.810;12.352;2023-04-20T14:20:33;5.03;;;4.55;;